Date,TemperatureHighF,TemperatureAvgF,TemperatureLowF,DewpointHighF,DewpointAvgF,DewpointLowF,HumidityHigh,HumidityAvg,HumidityLow,PressureMaxIn,PressureMinIn,WindSpeedMaxMPH,WindSpeedAvgMPH,GustSpeedMaxMPH,PrecipitationSumIn
2013-1-1,30,22,10,25,12,-1,86,65,47,29.57,29.31,11,4,24,0.02
2013-1-2,18,9,2,3,-2,-8,87,61,47,29.77,29.56,7,2,21,0.00
2013-1-3,22,9,-4,4,-1,-8,87,66,45,29.82,29.66,5,1,11,0.00
2013-1-4,30,19,6,24,13,1,84,77,68,29.66,29.41,6,3,15,0.00
2013-1-5,33,27,12,25,16,7,83,64,44,30.00,29.41,11,3,23,0.00
2013-1-6,28,19,11,22,14,7,92,82,72,29.97,29.64,3,0,9,0.02
2013-1-7,24,18,9,22,12,6,96,79,57,30.12,29.70,7,2,13,0.02
2013-1-8,38,20,5,24,14,2,92,80,54,30.08,29.91,5,1,12,0.01
2013-1-9,34,24,11,31,21,8,92,87,77,30.14,29.58,5,1,9,0.01
2013-1-10,43,37,29,31,26,19,89,66,49,30.24,29.57,13,6,31,0.01
2013-1-11,36,29,18,25,20,15,91,71,52,30.26,29.98,3,0,7,0.01
2013-1-12,38,35,32,38,34,26,99,95,74,29.98,29.82,2,0,6,0.05
2013-1-13,40,38,37,40,38,37,99,99,99,29.87,29.65,4,1,11,0.02
2013-1-14,52,42,36,49,37,25,100,83,54,29.93,29.53,10,3,19,0.02
2013-1-15,39,32,28,28,24,19,91,70,50,30.03,29.91,3,0,8,0.01
2013-1-16,29,28,26,27,24,19,96,87,68,29.99,29.49,5,1,9,0.00
2013-1-17,36,24,11,32,17,-3,96,75,43,29.88,29.47,8,3,19,0.13
2013-1-18,15,9,2,0,-5,-9,62,53,40,30.11,29.86,7,2,18,0.01
2013-1-19,32,22,7,23,14,-2,89,72,61,30.09,29.59,7,2,13,0.00
2013-1-20,42,32,20,33,22,5,91,70,44,29.61,29.13,10,4,22,0.09
2013-1-21,23,17,10,6,0,-2,58,47,34,29.77,29.57,6,3,18,0.01
2013-1-22,14,10,6,2,-3,-13,72,57,41,29.73,29.54,8,3,16,0.00
2013-1-23,6,1,-3,-12,-14,-16,57,47,39,29.80,29.73,8,4,22,0.00
2013-1-24,11,2,-6,-8,-12,-16,69,53,38,29.81,29.64,9,3,19,0.00
2013-1-25,18,10,2,1,-3,-10,74,56,44,29.91,29.80,5,2,16,0.00
2013-1-26,20,12,6,0,-3,-6,73,52,34,29.83,29.70,9,2,17,0.00
2013-1-27,23,14,6,5,0,-4,67,55,42,30.14,29.83,11,3,23,0.00
2013-1-28,27,17,6,17,5,-2,89,64,29,30.15,29.81,5,1,12,0.00
2013-1-29,35,24,11,27,19,8,91,80,60,29.93,29.81,2,0,6,0.01
2013-1-30,51,40,30,51,40,27,100,98,88,29.88,29.13,9,3,19,0.18
2013-1-31,57,42,31,55,32,12,100,68,44,29.13,28.50,12,6,27,0.38
2013-2-1,30,22,13,16,6,-1,57,50,42,29.75,29.11,11,5,28,0.01
2013-2-2,24,18,11,13,4,-2,73,54,40,29.91,29.75,7,2,16,0.00
2013-2-3,28,22,17,16,14,12,84,71,53,29.78,29.43,10,3,18,0.00
2013-2-4,26,20,13,14,7,-7,77,57,37,29.57,29.34,9,4,24,0.00
2013-2-5,23,14,8,4,-4,-8,62,44,30,29.76,29.56,6,2,17,0.00
2013-2-6,34,20,13,22,8,-4,72,59,33,30.01,29.64,9,2,22,0.00
2013-2-7,17,10,5,-2,-9,-12,53,41,28,30.33,30.01,7,2,16,0.00
2013-2-8,12,9,5,8,0,-11,86,70,43,30.34,29.76,12,6,24,0.00
2013-2-9,17,13,9,11,8,6,90,83,67,29.83,29.52,17,12,36,0.01
2013-2-10,35,22,13,13,5,1,79,51,27,30.08,29.83,11,4,26,0.00
2013-2-11,28,18,5,27,15,1,96,89,75,30.07,29.30,4,0,9,0.00
2013-2-12,41,34,28,36,30,27,98,85,68,29.46,29.24,7,2,15,0.24
2013-2-13,43,37,32,29,25,22,77,62,44,29.51,29.44,5,2,14,0.02
2013-2-14,39,31,24,26,22,19,86,68,46,29.71,29.45,8,2,18,0.01
2013-2-15,45,32,22,33,27,19,93,81,63,29.72,29.60,7,2,14,0.00
2013-2-16,32,30,26,30,28,15,96,90,64,29.67,29.53,8,2,15,0.06
2013-2-17,26,21,18,17,12,6,87,68,57,29.53,28.89,19,9,35,0.01
2013-2-18,28,20,13,8,3,0,61,49,39,29.71,29.11,13,6,31,0.01
2013-2-19,42,28,12,38,13,0,96,55,23,29.82,29.34,6,1,14,0.18
2013-2-20,43,35,27,42,27,17,98,75,59,29.34,29.10,9,4,25,0.52
2013-2-21,31,25,18,25,17,8,81,69,59,29.87,29.32,13,6,27,0.07
2013-2-22,36,31,26,24,22,20,82,69,55,30.12,29.86,9,4,18,0.00
2013-2-23,33,29,24,30,25,20,96,88,81,30.09,29.78,5,1,15,0.00
2013-2-24,30,28,27,29,27,24,97,95,90,29.78,29.54,6,2,13,0.00
2013-2-25,40,32,27,29,27,24,93,82,59,29.96,29.64,7,1,11,0.24
2013-2-26,43,35,28,31,28,25,95,78,54,30.08,29.96,5,0,9,0.03
2013-2-27,39,31,25,31,27,23,96,84,58,30.01,29.47,8,3,18,0.00
2013-2-28,37,33,30,36,32,29,98,97,95,29.47,29.28,7,4,16,0.35
2013-3-1,34,31,30,33,30,28,97,95,90,29.39,29.28,9,4,16,0.06
2013-3-2,38,34,31,33,30,28,97,89,76,29.36,29.32,9,4,21,0.10
2013-3-3,41,36,33,34,32,29,97,83,69,29.34,29.22,8,3,16,0.09
2013-3-4,35,32,31,31,28,25,97,85,72,29.41,29.20,10,4,21,0.07
2013-3-5,43,36,32,37,33,31,97,90,75,29.87,29.41,9,4,18,0.10
2013-3-6,38,34,32,33,30,24,95,84,73,30.03,29.86,12,6,21,0.02
2013-3-7,36,33,31,25,24,23,77,71,63,29.99,29.86,13,9,25,0.01
2013-3-8,45,36,29,25,24,22,76,62,40,29.97,29.83,13,9,28,0.00
2013-3-9,46,36,28,27,24,21,78,63,46,30.11,29.95,10,4,18,0.00
2013-3-10,45,33,22,30,26,20,92,76,51,30.16,30.02,6,2,17,0.00
2013-3-11,47,39,33,38,34,29,92,83,62,30.04,29.86,8,3,16,0.00
2013-3-12,49,45,40,48,43,38,98,94,87,29.87,29.46,7,3,17,0.36
2013-3-13,49,44,35,48,38,26,99,83,64,29.46,29.38,6,2,21,0.38
2013-3-14,42,32,22,29,22,10,91,68,48,29.47,29.33,11,3,23,0.01
2013-3-15,35,26,16,22,11,5,79,54,34,29.51,29.31,9,3,18,0.00
2013-3-16,34,27,21,24,15,8,93,63,35,29.62,29.33,7,3,15,0.01
2013-3-17,28,22,16,13,6,-2,82,51,30,30.02,29.61,10,3,25,0.01
2013-3-18,35,24,11,16,5,-1,82,46,25,30.16,30.01,7,1,14,0.01
2013-3-19,28,25,22,25,20,14,95,84,55,30.01,29.44,8,4,17,0.00
2013-3-20,34,27,20,30,23,18,95,84,66,29.44,29.29,8,3,22,0.14
2013-3-21,41,31,20,24,19,12,91,64,32,29.48,29.34,6,2,13,0.02
2013-3-22,39,30,22,21,18,15,82,61,41,29.36,29.28,7,2,17,0.01
2013-3-23,40,34,25,26,22,16,75,61,49,29.36,29.18,10,5,26,0.00
2013-3-24,44,38,30,28,26,24,84,62,49,29.50,29.33,9,4,23,0.00
2013-3-25,44,37,27,32,26,-100,89,68,54,29.50,29.33,8,3,16,0.00
2013-3-26,47,40,32,31,27,25,75,61,45,29.44,29.30,9,5,20,0.00
2013-3-27,42,38,31,38,33,28,95,83,70,29.60,29.42,8,3,17,0.13
2013-3-28,51,42,34,37,34,31,93,73,47,29.67,29.59,8,2,16,0.03
2013-3-29,52,44,33,38,34,31,94,67,47,29.72,29.65,6,2,17,0.00
2013-3-30,53,42,28,33,24,16,95,55,25,29.80,29.69,7,2,18,0.00
2013-3-31,54,41,24,36,24,-100,90,57,27,29.85,29.57,10,2,21,0.00
2013-4-1,51,41,33,43,36,21,97,84,65,29.58,29.20,8,3,18,0.28
2013-4-2,35,31,25,21,15,11,71,51,37,29.52,29.39,9,5,24,0.09
2013-4-3,39,33,26,22,16,11,82,51,41,29.74,29.49,11,6,26,0.00
2013-4-4,51,40,29,30,16,9,77,41,21,29.91,29.67,9,4,18,0.00
2013-4-5,57,43,32,30,27,22,87,57,29,29.67,29.36,9,4,29,0.00
2013-4-6,38,32,26,23,9,2,65,40,23,30.07,29.52,13,5,27,0.00
2013-4-7,45,37,25,38,25,-100,82,63,44,30.07,29.64,11,4,24,0.00
2013-4-8,57,48,39,39,36,31,87,62,44,29.87,29.60,11,4,20,0.00
2013-4-9,42,40,36,41,38,31,96,92,76,29.86,29.64,5,1,9,0.06
2013-4-10,58,48,39,45,39,35,98,74,51,29.71,29.61,6,2,11,0.04
2013-4-11,48,43,36,39,22,15,83,46,27,29.93,29.61,10,4,20,0.03
2013-4-12,38,34,31,31,23,14,97,68,45,30.00,29.66,6,2,10,0.09
2013-4-13,44,38,31,37,34,30,97,87,75,29.67,29.54,5,2,8,0.14
2013-4-14,49,41,36,41,38,31,98,87,71,29.90,29.62,5,1,15,0.06
2013-4-15,57,43,30,40,35,29,95,76,42,30.14,29.90,8,2,17,0.01
2013-4-16,56,48,39,46,40,36,91,74,54,30.16,29.64,14,6,25,0.01
2013-4-17,59,52,42,48,32,24,94,50,29,30.09,29.64,13,5,23,0.00
2013-4-18,50,43,30,36,28,23,83,57,35,30.22,29.84,7,3,17,0.00
2013-4-19,69,58,48,60,52,35,96,80,58,29.84,29.34,15,7,29,0.00
2013-4-20,60,52,42,59,39,26,97,65,37,29.85,29.28,8,4,22,0.12
2013-4-21,48,42,33,27,20,15,65,44,26,30.44,29.85,10,4,20,0.01
2013-4-22,53,40,26,31,23,14,85,54,23,30.56,30.41,8,2,16,0.00
2013-4-23,49,39,28,40,34,26,94,83,60,30.42,29.96,5,2,13,0.00
2013-4-24,58,49,42,51,46,40,97,89,78,29.96,29.49,9,4,16,0.02
2013-4-25,60,52,41,49,37,28,97,60,34,30.03,29.48,6,3,19,0.01
2013-4-26,61,48,31,34,31,27,90,55,29,30.17,30.03,7,2,13,0.00
2013-4-27,63,49,32,39,34,30,92,60,31,30.16,30.01,6,1,13,0.00
2013-4-28,70,54,35,41,34,-100,93,55,28,30.06,29.93,7,2,15,0.00
2013-4-29,68,54,36,46,39,33,89,60,31,30.01,29.92,7,2,16,0.00
2013-4-30,72,56,38,45,39,32,95,58,29,30.09,29.98,6,1,15,0.00
2013-5-1,77,58,37,39,35,33,88,47,21,30.18,30.09,8,2,16,0.00
2013-5-2,70,57,41,46,39,33,86,55,30,30.27,30.14,6,2,17,0.00
2013-5-3,69,55,42,46,42,35,80,62,42,30.30,30.09,7,2,13,0.00
2013-5-4,71,53,40,44,38,29,94,63,22,30.14,29.98,6,2,17,0.00
2013-5-5,71,53,36,42,38,34,95,63,31,30.07,29.93,8,3,17,0.00
2013-5-6,70,54,41,45,41,35,96,67,29,30.00,29.85,7,4,17,0.00
2013-5-7,77,59,45,56,48,41,98,72,32,29.90,29.79,8,4,18,0.00
2013-5-8,77,64,51,59,56,50,99,78,46,29.96,29.86,9,3,20,0.00
2013-5-9,65,59,55,60,57,54,99,93,82,29.87,29.63,4,1,9,0.08
2013-5-10,76,62,52,61,54,-100,100,83,51,29.67,29.61,6,1,12,0.06
2013-5-11,62,58,53,60,56,51,98,95,88,29.66,29.40,7,3,17,0.27
2013-5-12,61,56,48,59,52,-100,99,91,74,29.43,29.26,6,2,18,0.13
2013-5-13,57,50,39,44,34,29,97,60,36,29.73,29.43,10,2,18,0.01
2013-5-14,54,48,37,37,32,30,85,58,39,29.76,29.67,8,3,15,0.00
2013-5-15,64,49,34,48,36,27,97,67,26,29.72,29.39,11,3,24,0.13
2013-5-16,76,54,49,56,27,-100,98,67,28,29.51,29.27,8,3,19,0.14
2013-5-17,61,53,44,45,36,-100,91,62,43,29.93,29.51,11,4,23,0.00
2013-5-18,65,52,40,49,43,38,93,71,47,30.07,29.93,6,2,14,0.00
2013-5-19,68,54,42,51,46,41,97,78,51,30.11,29.96,5,2,13,0.00
2013-5-20,72,59,49,61,55,48,99,87,67,29.97,29.64,3,1,10,0.25
2013-5-21,59,54,51,57,52,49,98,95,89,29.81,29.68,6,1,10,0.53
2013-5-22,57,52,49,53,50,48,99,94,85,29.81,29.67,5,1,9,0.23
2013-5-23,68,58,48,62,56,47,98,93,82,29.69,29.52,6,2,14,0.01
2013-5-24,69,59,48,65,58,47,100,96,88,29.60,29.37,8,4,19,0.69
2013-5-25,48,46,44,47,45,43,98,97,94,29.59,29.45,13,7,24,0.40
2013-5-26,54,47,44,48,44,41,98,89,68,29.68,29.39,8,4,27,0.20
2013-5-27,66,54,38,42,38,34,95,60,30,29.88,29.67,9,3,23,0.01
2013-5-28,74,56,37,46,41,36,98,62,29,29.96,29.88,7,2,18,0.00
2013-5-29,56,52,45,55,50,43,99,93,75,29.94,29.72,4,1,9,0.07
2013-5-30,84,70,53,67,60,53,100,75,46,29.75,29.67,7,2,16,0.02
2013-5-31,93,77,57,70,65,56,98,70,43,29.76,29.57,6,2,16,0.00
2013-6-1,94,79,64,71,67,63,96,69,40,29.63,29.50,6,1,15,0.00
2013-6-2,90,76,66,73,66,-100,97,77,52,29.52,29.34,13,3,28,0.05
2013-6-3,78,70,63,67,64,51,98,83,61,29.51,29.39,6,3,17,0.05
2013-6-4,66,60,52,52,45,41,88,61,42,29.75,29.49,9,3,22,0.01
2013-6-5,73,61,49,48,42,36,83,53,26,29.89,29.75,6,2,14,0.00
2013-6-6,73,59,45,52,45,-100,95,65,38,29.96,29.86,5,1,10,0.00
2013-6-7,63,58,52,53,49,36,97,74,38,29.89,29.72,6,1,12,0.25
2013-6-8,65,58,52,59,55,51,98,90,78,29.73,29.42,8,3,17,0.64
2013-6-9,74,64,54,61,56,52,97,77,54,29.88,29.69,5,1,13,0.02
2013-6-10,74,63,52,60,54,51,97,76,49,29.95,29.78,4,1,13,0.02
2013-6-11,58,56,54,55,54,53,98,96,86,29.78,29.28,6,3,15,0.57
2013-6-12,59,57,54,57,55,53,99,94,83,29.48,29.23,8,4,18,0.20
2013-6-13,73,62,54,56,52,48,99,73,43,29.52,29.44,7,2,14,0.02
2013-6-14,78,64,53,58,55,52,95,74,42,29.47,29.36,8,1,21,0.01
2013-6-15,75,65,54,56,46,42,94,55,34,29.59,29.44,8,2,17,0.00
2013-6-16,77,63,52,58,52,46,92,70,46,29.62,29.44,7,2,15,0.04
2013-6-17,78,66,56,64,60,55,98,82,51,29.58,29.44,9,2,18,0.15
2013-6-18,69,62,53,59,52,48,98,74,51,29.71,29.57,5,1,9,0.01
2013-6-19,73,62,48,54,47,42,95,62,33,29.86,29.65,7,2,17,0.01
2013-6-20,77,61,47,52,49,46,96,69,36,29.98,29.86,6,1,13,0.00
2013-6-22,76,73,70,66,64,61,86,73,62,29.91,29.82,4,0,11,0.00
2013-6-23,80,71,64,72,68,63,99,88,75,29.85,29.66,6,2,13,0.05
2013-6-24,89,78,67,73,69,65,99,76,54,29.67,29.52,7,2,16,0.02
2013-6-25,90,76,66,74,67,62,99,77,56,29.55,29.41,8,2,22,0.69
2013-6-26,74,67,62,70,66,62,99,95,86,29.59,29.41,8,1,13,0.75
2013-6-27,67,62,58,64,61,57,99,95,88,29.61,29.55,4,2,11,0.12
2013-6-28,63,60,57,63,60,57,100,99,95,29.59,29.29,5,1,11,0.38
2013-6-29,74,68,64,71,67,64,100,96,89,29.41,29.28,7,2,15,0.03
2013-6-30,84,72,63,72,68,62,100,87,64,29.64,29.40,7,2,14,0.09
2013-7-1,77,71,67,72,69,67,100,93,84,29.83,29.64,2,0,6,0.11
2013-7-2,69,60,57,69,59,56,99,97,92,29.96,29.83,7,3,15,0.27
2013-7-3,84,68,58,74,65,57,99,90,71,29.93,29.81,5,1,11,0.01
2013-7-4,91,78,67,76,72,67,100,82,54,29.88,29.75,5,1,12,0.02
2013-7-5,92,80,69,76,72,69,99,80,52,29.81,29.70,6,1,16,0.02
2013-7-6,88,80,72,73,71,64,96,75,56,29.73,29.62,6,2,14,0.01
2013-7-7,88,79,68,71,67,63,87,67,52,29.67,29.60,6,2,15,0.00
2013-7-8,78,69,59,70,61,-100,95,80,72,29.79,29.61,6,1,13,0.00
2013-7-9,78,69,65,68,65,63,96,87,65,29.85,29.79,4,2,12,0.00
2013-7-10,71,66,62,67,64,61,99,93,83,29.81,29.50,6,2,12,0.08
2013-7-11,79,72,66,72,68,59,100,89,65,29.69,29.46,4,1,10,0.39
2013-7-12,80,69,60,62,58,56,94,69,47,29.94,29.70,7,2,13,0.07
2013-7-13,85,71,56,66,60,55,98,72,41,30.04,29.93,6,2,12,0.00
2013-7-14,91,77,62,74,67,58,94,73,52,30.00,29.88,4,1,9,0.00
2013-7-15,94,79,66,72,69,65,99,74,44,29.90,29.76,4,1,10,0.00
2013-7-16,91,82,69,74,70,67,94,69,48,29.87,29.80,5,1,11,0.00
2013-7-17,89,78,67,76,70,66,98,79,59,29.88,29.64,8,3,17,0.38
2013-7-18,87,75,68,72,69,67,99,84,59,29.73,29.64,5,2,14,0.60
2013-7-19,92,80,69,78,73,68,99,82,61,29.66,29.31,10,4,21,0.13
2013-8-16,79,69,62,59,52,-100,84,60,45,29.90,29.81,4,2,10,0.00
2013-8-17,78,67,57,60,57,53,96,72,44,29.99,29.90,5,1,11,0.00
2013-8-18,77,65,51,65,57,-100,97,78,53,30.00,29.76,5,1,10,0.00
2013-8-19,86,68,57,66,51,-100,98,74,50,29.76,29.58,6,2,13,0.00
2013-8-20,86,73,61,68,63,-100,97,74,50,29.78,29.66,6,2,11,0.00
2013-8-21,88,74,61,71,66,60,98,76,51,29.84,29.69,6,2,13,0.00
2013-8-22,87,76,63,70,67,62,97,74,52,29.70,29.47,7,2,14,0.00
2013-8-23,75,69,59,67,56,50,94,66,45,29.86,29.47,8,3,19,0.02
2013-8-24,78,65,50,58,51,48,93,66,37,30.03,29.87,4,1,10,0.00
2013-8-25,80,65,49,59,52,-100,97,68,41,30.09,29.86,5,1,11,0.00
2013-8-26,76,68,59,68,63,55,96,86,72,29.86,29.58,7,2,12,0.00
2013-8-27,86,72,61,69,65,61,99,81,51,29.61,29.56,4,1,7,0.00
2013-8-28,86,75,65,70,67,64,99,79,57,29.73,29.57,17,2,32,1.49
2013-8-29,65,62,55,65,59,54,99,91,80,29.86,29.72,7,2,14,1.49
2013-8-30,82,68,53,71,62,52,99,84,63,29.75,29.48,4,1,9,0.01
2013-8-31,83,72,64,71,68,63,99,86,65,29.54,29.49,5,1,16,0.25
2013-9-1,82,74,68,71,66,-100,100,82,60,29.65,29.47,4,1,9,0.28
2013-9-2,71,66,63,69,65,62,99,97,94,29.65,29.47,5,1,11,1.38
2013-9-3,78,70,64,70,67,64,100,92,75,29.49,29.39,3,1,22,0.73
2013-9-4,80,69,58,67,59,55,99,72,44,29.61,29.44,7,2,17,0.26
2013-9-5,68,59,48,60,49,42,97,72,43,29.85,29.57,7,2,13,0.02
2013-9-6,68,57,43,51,46,40,98,70,42,29.93,29.75,6,2,15,0.01
2013-9-7,73,62,50,60,55,49,97,81,54,29.75,29.50,6,2,13,0.01
2013-9-8,64,57,46,59,46,-100,97,71,48,29.78,29.42,12,3,25,0.17
2013-9-9,67,56,42,52,46,40,96,71,44,29.91,29.77,8,2,16,0.07
2013-9-10,66,61,50,63,58,49,97,89,80,29.82,29.75,4,1,9,0.00
2013-9-11,91,76,62,78,70,61,100,85,65,29.77,29.57,7,2,17,0.11
2013-9-12,75,70,67,71,68,66,99,95,85,29.70,29.36,7,2,17,0.41
2013-9-13,67,64,59,67,63,58,100,98,96,29.43,29.31,6,2,16,1.33
2013-9-14,70,62,53,59,56,50,98,82,62,29.74,29.42,5,2,11,0.45
2013-9-15,68,56,46,55,49,-100,99,83,54,29.84,29.72,5,1,10,0.00
2013-9-16,62,54,44,57,49,37,98,82,62,29.99,29.68,8,3,15,0.11
2013-9-17,65,52,40,49,42,36,96,71,46,30.12,29.98,6,2,14,0.08
2013-9-18,52,45,41,46,44,40,98,96,90,30.01,29.81,2,0,4,0.00
2013-9-19,78,61,44,59,52,43,98,74,41,29.84,29.71,5,1,11,0.00
2013-9-20,78,64,47,59,54,46,98,75,49,29.83,29.73,5,1,9,0.00
2013-9-21,68,62,53,63,57,52,99,86,67,29.75,29.48,9,4,21,0.00
2013-9-22,71,62,53,66,57,-100,98,86,77,29.48,29.29,7,3,16,0.37
2013-9-23,56,51,43,48,43,39,90,73,62,29.64,29.46,9,3,20,0.09
2013-9-24,53,50,47,46,43,41,91,78,70,29.64,29.55,10,2,21,0.06
2013-9-25,61,55,47,49,46,43,89,73,62,29.69,29.58,8,3,16,0.05
2013-9-26,62,56,48,51,49,44,89,78,66,29.86,29.69,8,3,15,0.00
2013-9-27,71,61,51,57,53,50,96,76,52,29.98,29.86,6,1,13,0.00
2013-9-28,74,61,46,55,52,45,97,75,44,30.07,29.98,3,0,8,0.00
2013-9-29,71,57,45,56,47,-100,99,75,43,30.00,29.85,4,1,11,0.00
2013-9-30,70,56,47,52,49,45,97,78,45,29.86,29.71,4,0,8,0.00
2013-10-1,58,54,46,54,52,45,95,93,88,29.71,29.56,0,0,2,0.01
2013-10-2,78,66,50,62,55,49,98,68,48,29.59,29.45,7,2,15,0.01
2013-10-3,74,63,47,52,48,46,96,63,37,29.78,29.59,6,2,16,0.00
2013-10-4,69,60,46,56,51,45,96,73,50,29.82,29.74,4,0,9,0.00
2013-10-5,63,55,48,51,47,43,94,75,54,29.89,29.80,3,0,7,0.00
2013-10-6,60,52,44,47,42,37,96,71,46,30.03,29.89,4,2,9,0.07
2013-10-7,68,60,48,66,59,47,99,97,93,29.95,29.49,11,4,23,0.54
2013-10-8,64,54,41,63,44,39,98,69,48,30.12,29.52,7,3,20,0.41
2013-10-9,64,51,36,45,42,35,98,73,47,30.22,30.09,4,1,10,0.00
2013-10-10,68,53,37,51,46,36,98,80,49,30.09,29.91,3,1,7,0.00
2013-10-11,73,58,40,57,51,39,97,78,51,29.92,29.84,3,0,6,0.00
2013-10-12,58,54,49,52,51,48,96,87,80,30.14,29.91,4,1,10,0.00
2013-10-13,58,52,51,51,43,-100,92,79,75,30.19,30.11,4,2,9,0.00
2013-10-14,64,55,43,51,48,42,98,79,60,30.11,29.95,5,2,12,0.00
2013-10-15,68,58,46,55,51,45,97,80,58,30.01,29.91,4,1,8,0.00
2013-10-16,63,58,54,54,52,47,95,82,60,29.95,29.61,6,2,10,0.00
2013-10-17,71,59,49,58,53,47,96,81,50,29.61,29.44,4,1,12,0.01
2013-10-18,66,57,47,55,49,44,98,76,55,29.53,29.32,7,2,20,0.02
2013-10-19,56,51,44,45,42,39,84,72,64,29.64,29.53,4,2,9,0.01
2013-12-15,16,13,14,13,-4,-100,89,75,86,29.39,29.35,1,0,4,0.00
2013-12-16,21,12,1,14,3,-7,90,66,52,29.94,29.38,8,3,20,0.00
2013-12-17,11,7,-7,6,0,-10,87,72,58,30.06,29.81,5,1,9,0.00
2013-12-18,26,20,9,22,16,6,91,86,80,29.81,29.57,5,2,10,0.02
2013-12-19,30,26,15,25,22,12,91,85,80,29.80,29.64,4,2,9,0.01
2013-12-20,32,30,26,30,28,24,95,92,86,29.83,29.65,5,2,10,0.01
2013-12-21,30,26,21,29,22,-100,95,92,92,29.71,29.58,5,2,14,0.01
2013-12-22,29,25,23,28,24,22,96,95,94,29.83,29.61,6,3,13,0.00
2013-12-23,31,29,25,30,28,24,97,96,95,29.85,29.72,3,1,9,0.00
2013-12-24,31,22,12,30,19,9,97,89,85,29.91,29.79,4,1,9,0.00
2013-12-25,18,12,6,13,8,2,91,84,76,30.28,29.91,4,1,8,0.00
2013-12-26,19,15,8,17,11,-100,93,90,89,30.26,29.82,3,1,6,0.00
2013-12-27,31,23,10,26,20,8,93,90,83,29.92,29.84,2,0,4,0.01
2013-12-28,31,28,16,30,24,-100,96,92,90,29.89,29.65,0,0,0,0.01
2013-12-29,33,25,18,32,24,17,96,95,94,29.74,29.33,2,0,10,0.00
2013-12-30,28,16,3,27,13,-2,96,89,82,29.93,29.31,9,2,22,0.01
2013-12-31,7,3,-3,3,0,-6,89,85,79,29.92,29.78,2,0,11,0.01
2014-1-1,18,7,-9,11,1,-12,87,76,62,30.17,29.83,8,2,21,0.00
2014-1-2,1,-6,-8,-5,-11,-12,82,78,72,30.23,29.82,10,6,19,0.00